createdAt,value
2023-04-01T00:00:42.655Z,23.79
2023-04-01T00:01:42.686Z,23.79
2023-04-01T00:02:42.773Z,23.79
2023-04-01T00:03:42.919Z,23.78
2023-04-01T00:04:42.881Z,23.78
2023-04-01T00:05:42.806Z,23.79
2023-04-01T00:06:42.821Z,23.78
2023-04-01T00:07:42.867Z,23.79
2023-04-01T00:08:42.906Z,23.78
2023-04-01T00:09:42.900Z,23.78
2023-04-01T00:10:42.936Z,23.78
2023-04-01T00:11:42.996Z,23.78
2023-04-01T00:12:43.015Z,23.78
2023-04-01T00:13:43.056Z,23.77
2023-04-01T00:14:43.076Z,23.77
2023-04-01T00:15:43.139Z,23.78
2023-04-01T00:16:43.198Z,23.77
2023-04-01T00:17:43.249Z,23.77
2023-04-01T00:18:43.207Z,23.77
2023-04-01T00:19:43.211Z,23.77
2023-04-01T00:20:43.240Z,23.77
2023-04-01T00:21:43.308Z,23.77
2023-04-01T00:22:43.344Z,23.77
2023-04-01T00:23:43.355Z,23.77
2023-04-01T00:24:43.383Z,23.77
2023-04-01T00:25:43.427Z,23.76
2023-04-01T00:26:43.463Z,23.77
2023-04-01T00:27:43.495Z,23.76
2023-04-01T00:28:43.508Z,23.77
2023-04-01T00:29:43.562Z,23.76
2023-04-01T00:30:43.601Z,23.77
2023-04-01T00:31:43.717Z,23.76
2023-04-01T00:32:43.681Z,23.76
2023-04-01T00:33:43.707Z,23.77
2023-04-01T00:34:43.744Z,23.76
2023-04-01T00:35:43.770Z,23.76
2023-04-01T00:36:43.823Z,23.76
2023-04-01T00:37:43.820Z,23.76
2023-04-01T00:38:43.871Z,23.76
2023-04-01T00:39:43.901Z,23.76
2023-04-01T00:40:43.932Z,23.76
2023-04-01T00:41:43.986Z,23.76
2023-04-01T00:42:43.997Z,23.76
2023-04-01T00:43:44.066Z,23.75
2023-04-01T00:44:44.092Z,23.75
2023-04-01T00:45:44.111Z,23.75
2023-04-01T00:46:44.160Z,23.76
2023-04-01T00:47:44.245Z,23.76
2023-04-01T00:48:44.241Z,23.75
2023-04-01T00:49:44.236Z,23.75
2023-04-01T00:50:44.318Z,23.75
2023-04-01T00:51:44.305Z,23.75
2023-04-01T00:52:44.377Z,23.75
2023-04-01T00:53:44.447Z,23.75
2023-04-01T00:54:44.446Z,23.75
2023-04-01T00:55:44.464Z,23.76
2023-04-01T00:56:44.560Z,23.76
2023-04-01T00:57:44.540Z,23.75
2023-04-01T00:58:44.584Z,23.76
2023-04-01T00:59:44.627Z,23.74
2023-04-01T01:00:44.698Z,23.75
2023-04-01T01:01:44.695Z,23.74
2023-04-01T01:02:44.819Z,23.75
2023-04-01T01:03:44.753Z,23.74
2023-04-01T01:04:44.791Z,23.74
2023-04-01T01:06:44.845Z,23.74
2023-04-01T01:07:44.809Z,23.74
2023-04-01T01:08:44.824Z,23.74
2023-04-01T01:09:44.793Z,23.74
2023-04-01T01:10:44.815Z,23.74
2023-04-01T01:11:44.803Z,23.74
2023-04-01T01:12:44.790Z,23.74
2023-04-01T01:13:44.788Z,23.74
2023-04-01T01:14:44.770Z,23.73
2023-04-01T01:15:44.761Z,23.74
2023-04-01T01:16:44.846Z,23.74
2023-04-01T01:17:44.753Z,23.74
2023-04-01T01:18:44.721Z,23.74
2023-04-01T01:19:44.836Z,23.74
2023-04-01T01:20:44.711Z,23.74
2023-04-01T01:21:44.729Z,23.75
2023-04-01T01:22:44.725Z,23.74
2023-04-01T01:23:44.732Z,23.73
2023-04-01T01:24:44.726Z,23.74
2023-04-01T01:25:44.719Z,23.73
2023-04-01T01:26:44.674Z,23.73
2023-04-01T01:27:44.706Z,23.73
2023-04-01T01:28:44.685Z,23.74
2023-04-01T01:29:44.672Z,23.74
2023-04-01T01:30:44.694Z,23.74
2023-04-01T01:31:44.677Z,23.75
2023-04-01T01:32:44.673Z,23.74
2023-04-01T01:33:44.656Z,23.74
2023-04-01T01:34:44.632Z,23.74
2023-04-01T01:35:44.638Z,23.74
2023-04-01T01:36:44.602Z,23.74
2023-04-01T01:37:44.628Z,23.74
2023-04-01T01:38:44.623Z,23.73
2023-04-01T01:39:44.615Z,23.73
2023-04-01T01:40:44.565Z,23.73
2023-04-01T01:41:44.599Z,23.73
2023-04-01T01:42:44.581Z,23.73
2023-04-01T01:43:44.546Z,23.73
2023-04-01T01:44:44.590Z,23.73
2023-04-01T01:45:44.579Z,23.73
2023-04-01T01:46:44.544Z,23.73
2023-04-01T01:47:44.568Z,23.73
2023-04-01T01:48:44.526Z,23.73
2023-04-01T01:49:44.526Z,23.73
2023-04-01T01:50:44.528Z,23.73
2023-04-01T01:51:44.510Z,23.73
2023-04-01T01:52:44.516Z,23.73
2023-04-01T01:53:44.513Z,23.73
2023-04-01T01:54:44.535Z,23.73
2023-04-01T01:55:44.553Z,23.73
2023-04-01T01:56:44.637Z,23.74
2023-04-01T01:57:44.663Z,23.73
2023-04-01T01:58:44.651Z,23.73
2023-04-01T01:59:44.686Z,23.74
2023-04-01T02:00:44.727Z,23.73
2023-04-01T02:01:44.744Z,23.74
2023-04-01T02:02:44.860Z,23.74
2023-04-01T02:03:44.802Z,23.73
2023-04-01T02:04:44.921Z,23.74
2023-04-01T02:05:44.905Z,23.73
2023-04-01T02:06:44.929Z,23.73
2023-04-01T02:07:44.973Z,23.74
2023-04-01T02:08:44.971Z,23.74
2023-04-01T02:09:45.035Z,23.74
2023-04-01T02:10:45.057Z,23.74
2023-04-01T02:11:45.148Z,23.73
2023-04-01T02:12:45.121Z,23.73
2023-04-01T02:13:45.132Z,23.73
2023-04-01T02:14:45.168Z,23.74
2023-04-01T02:15:45.227Z,23.74
2023-04-01T02:16:45.233Z,23.73
2023-04-01T02:17:45.382Z,23.72
2023-04-01T02:18:45.329Z,23.73
2023-04-01T02:19:45.363Z,23.73
2023-04-01T02:20:45.425Z,23.73
2023-04-01T02:21:45.438Z,23.73
2023-04-01T02:22:45.483Z,23.73
2023-04-01T02:23:45.526Z,23.73
2023-04-01T02:24:45.558Z,23.74
2023-04-01T02:25:45.606Z,23.73
2023-04-01T02:26:45.657Z,23.72
2023-04-01T02:27:45.676Z,23.73
2023-04-01T02:28:45.710Z,23.72
2023-04-01T02:29:45.766Z,23.72
2023-04-01T02:30:45.801Z,23.72
2023-04-01T02:31:45.881Z,23.73
2023-04-01T02:32:45.981Z,23.73
2023-04-01T02:33:45.963Z,23.73
2023-04-01T02:34:45.950Z,23.73
2023-04-01T02:35:46.071Z,23.72
2023-04-01T02:36:46.071Z,23.72
2023-04-01T02:37:46.096Z,23.71
2023-04-01T02:38:46.123Z,23.72
2023-04-01T02:39:46.169Z,23.71
2023-04-01T02:40:46.209Z,23.71
2023-04-01T02:41:46.236Z,23.72
2023-04-01T02:42:46.299Z,23.72
2023-04-01T02:43:46.311Z,23.71
2023-04-01T02:44:46.357Z,23.71
2023-04-01T02:45:46.401Z,23.71
2023-04-01T02:46:46.451Z,23.70
2023-04-01T02:47:46.528Z,23.71
2023-04-01T02:48:46.535Z,23.70
2023-04-01T02:49:46.552Z,23.70
2023-04-01T02:50:46.610Z,23.71
2023-04-01T02:51:46.646Z,23.70
2023-04-01T02:52:46.655Z,23.71
2023-04-01T02:53:46.728Z,23.70
2023-04-01T02:54:46.762Z,23.71
2023-04-01T02:55:46.809Z,23.71
2023-04-01T02:56:46.869Z,23.71
2023-04-01T02:57:46.847Z,23.71
2023-04-01T02:58:46.934Z,23.71
2023-04-01T02:59:46.946Z,23.71
2023-04-01T03:00:46.987Z,23.71
2023-04-01T03:01:47.017Z,23.71
2023-04-01T03:02:47.097Z,23.71
2023-04-01T03:03:47.080Z,23.71
2023-04-01T03:04:47.102Z,23.71
2023-04-01T03:05:47.155Z,23.71
2023-04-01T03:06:47.228Z,23.71
2023-04-01T03:07:47.214Z,23.71
2023-04-01T03:08:47.246Z,23.71
2023-04-01T03:09:47.310Z,23.71
2023-04-01T03:10:47.353Z,23.71
2023-04-01T03:11:47.368Z,23.71
2023-04-01T03:12:47.425Z,23.71
2023-04-01T03:13:47.452Z,23.71
2023-04-01T03:14:47.484Z,23.70
2023-04-01T03:15:47.535Z,23.70
2023-04-01T03:16:47.604Z,23.70
2023-04-01T03:17:47.741Z,23.70
2023-04-01T03:18:47.647Z,23.70
2023-04-01T03:19:47.723Z,23.69
2023-04-01T03:20:47.740Z,23.69
2023-04-01T03:21:47.800Z,23.70
2023-04-01T03:22:47.815Z,23.69
2023-04-01T03:23:47.844Z,23.69
2023-04-01T03:24:47.879Z,23.69
2023-04-01T03:25:47.961Z,23.69
2023-04-01T03:26:47.944Z,23.69
2023-04-01T03:27:47.996Z,23.69
2023-04-01T03:28:48.058Z,23.69
2023-04-01T03:29:48.144Z,23.69
2023-04-01T03:30:48.169Z,23.68
2023-04-01T03:31:48.179Z,23.69
2023-04-01T03:32:48.288Z,23.69
2023-04-01T03:33:48.249Z,23.68
2023-04-01T03:34:48.286Z,23.69
2023-04-01T03:35:48.336Z,23.69
2023-04-01T03:36:48.365Z,23.68
2023-04-01T03:37:48.362Z,23.68
2023-04-01T03:38:48.432Z,23.68
2023-04-01T03:39:48.475Z,23.68
2023-04-01T03:40:48.502Z,23.68
2023-04-01T03:41:48.503Z,23.68
2023-04-01T03:42:48.586Z,23.68
2023-04-01T03:43:48.594Z,23.68
2023-04-01T03:44:48.674Z,23.68
2023-04-01T03:45:48.832Z,23.68
2023-04-01T03:46:48.708Z,23.68
2023-04-01T03:47:48.844Z,23.68
2023-04-01T03:48:48.817Z,23.68
2023-04-01T03:49:48.833Z,23.68
2023-04-01T03:50:48.896Z,23.68
2023-04-01T03:51:48.937Z,23.68
2023-04-01T03:52:48.961Z,23.67
2023-04-01T03:53:48.994Z,23.68
2023-04-01T03:54:49.054Z,23.68
2023-04-01T03:55:49.071Z,23.67
2023-04-01T03:56:49.128Z,23.67
2023-04-01T03:57:49.146Z,23.67
2023-04-01T03:58:49.210Z,23.67
2023-04-01T03:59:49.229Z,23.67
2023-04-01T04:00:49.246Z,23.67
2023-04-01T04:01:49.300Z,23.67
2023-04-01T04:02:49.408Z,23.68
2023-04-01T04:03:49.418Z,23.67
2023-04-01T04:04:49.408Z,23.67
2023-04-01T04:05:49.493Z,23.68
2023-04-01T04:06:49.475Z,23.67
2023-04-01T04:07:49.534Z,23.66
2023-04-01T04:08:49.557Z,23.67
2023-04-01T04:09:49.618Z,23.67
2023-04-01T04:10:49.653Z,23.67
2023-04-01T04:11:49.703Z,23.67
2023-04-01T04:12:49.728Z,23.66
2023-04-01T04:13:49.765Z,23.67
2023-04-01T04:14:49.804Z,23.66
2023-04-01T04:15:49.869Z,23.67
2023-04-01T04:16:49.896Z,23.67
2023-04-01T04:17:49.975Z,23.67
2023-04-01T04:18:49.984Z,23.67
2023-04-01T04:19:49.999Z,23.67
2023-04-01T04:20:50.028Z,23.67
2023-04-01T04:21:50.067Z,23.66
2023-04-01T04:22:50.120Z,23.67
2023-04-01T04:23:50.123Z,23.67
2023-04-01T04:24:50.174Z,23.67
2023-04-01T04:25:50.211Z,23.67
2023-04-01T04:26:50.236Z,23.67
2023-04-01T04:27:50.313Z,23.67
2023-04-01T04:28:50.376Z,23.67
2023-04-01T04:29:50.363Z,23.66
2023-04-01T04:30:50.392Z,23.67
2023-04-01T04:31:50.536Z,23.67
2023-04-01T04:32:50.486Z,23.67
2023-04-01T04:33:50.513Z,23.67
2023-04-01T04:34:50.565Z,23.67
2023-04-01T04:35:50.641Z,23.67
2023-04-01T04:36:50.630Z,23.67
2023-04-01T04:37:50.651Z,23.67
2023-04-01T04:38:50.694Z,23.66
2023-04-01T04:39:50.768Z,23.67
2023-04-01T04:40:50.787Z,23.66
2023-04-01T04:41:50.831Z,23.66
2023-04-01T04:42:50.844Z,23.66
2023-04-01T04:43:50.916Z,23.66
2023-04-01T04:44:50.967Z,23.65
2023-04-01T04:45:51.001Z,23.65
2023-04-01T04:46:51.086Z,23.66
2023-04-01T04:47:51.105Z,23.66
2023-04-01T04:48:51.091Z,23.66
2023-04-01T04:49:51.145Z,23.66
2023-04-01T04:50:51.229Z,23.65
2023-04-01T04:51:51.230Z,23.66
2023-04-01T04:52:51.259Z,23.66
2023-04-01T04:53:52.823Z,23.66
2023-04-01T04:54:51.331Z,23.65
2023-04-01T04:55:51.382Z,23.66
2023-04-01T04:56:51.444Z,23.66
2023-04-01T04:57:51.470Z,23.65
2023-04-01T04:58:51.514Z,23.65
2023-04-01T04:59:51.555Z,23.66
2023-04-01T05:00:51.624Z,23.66
2023-04-01T05:01:51.678Z,23.66
2023-04-01T05:02:51.762Z,23.65
2023-04-01T05:03:51.729Z,23.66
2023-04-01T05:04:51.744Z,23.65
2023-04-01T05:05:51.787Z,23.66
2023-04-01T05:06:51.812Z,23.66
2023-04-01T05:07:51.873Z,23.65
2023-04-01T05:08:51.890Z,23.66
2023-04-01T05:09:51.937Z,23.66
2023-04-01T05:10:51.981Z,23.66
2023-04-01T05:11:52.013Z,23.65
2023-04-01T05:12:52.080Z,23.65
2023-04-01T05:13:52.113Z,23.65
2023-04-01T05:14:52.180Z,23.65
2023-04-01T05:15:52.158Z,23.65
2023-04-01T05:16:52.231Z,23.66
2023-04-01T05:17:52.296Z,23.66
2023-04-01T05:18:52.298Z,23.66
2023-04-01T05:19:52.355Z,23.66
2023-04-01T05:20:52.385Z,23.66
2023-04-01T05:21:52.416Z,23.66
2023-04-01T05:22:52.469Z,23.65
2023-04-01T05:23:52.497Z,23.65
2023-04-01T05:24:52.561Z,23.66
2023-04-01T05:25:52.607Z,23.65
2023-04-01T05:26:53.126Z,23.65
2023-04-01T05:27:52.709Z,23.65
2023-04-01T05:28:52.740Z,23.65
2023-04-01T05:29:52.759Z,23.65
2023-04-01T05:30:52.827Z,23.65
2023-04-01T05:31:52.840Z,23.65
2023-04-01T05:32:52.934Z,23.65
2023-04-01T05:33:52.947Z,23.65
2023-04-01T05:34:52.975Z,23.65
2023-04-01T05:35:53.064Z,23.65
2023-04-01T05:36:53.079Z,23.65
2023-04-01T05:37:53.113Z,23.65
2023-04-01T05:38:53.176Z,23.64
2023-04-01T05:39:53.210Z,23.64
2023-04-01T05:40:53.237Z,23.65
2023-04-01T05:41:53.309Z,23.64
2023-04-01T05:42:53.318Z,23.65
2023-04-01T05:43:53.358Z,23.64
2023-04-01T05:44:53.447Z,23.65
2023-04-01T05:45:53.505Z,23.66
2023-04-01T05:46:53.551Z,23.65
2023-04-01T05:47:53.614Z,23.66
2023-04-01T05:48:53.602Z,23.65
2023-04-01T05:49:53.679Z,23.66
2023-04-01T05:50:53.698Z,23.66
2023-04-01T05:51:53.740Z,23.66
2023-04-01T05:52:53.811Z,23.66
2023-04-01T05:53:53.845Z,23.65
2023-04-01T05:54:53.871Z,23.66
2023-04-01T05:55:53.909Z,23.66
2023-04-01T05:56:54.034Z,23.66
2023-04-01T05:57:54.028Z,23.66
2023-04-01T05:58:54.071Z,23.66
2023-04-01T05:59:54.123Z,23.67
2023-04-01T06:01:08.117Z,23.67
2023-04-01T06:01:55.152Z,23.66
2023-04-01T06:02:54.216Z,23.66
2023-04-01T06:03:54.398Z,23.67
2023-04-01T06:04:54.156Z,23.68
2023-04-01T06:05:54.131Z,23.68
2023-04-01T06:06:54.125Z,23.68
2023-04-01T06:07:54.101Z,23.68
2023-04-01T06:08:54.126Z,23.67
2023-04-01T06:09:54.099Z,23.68
2023-04-01T06:10:54.084Z,23.68
2023-04-01T06:11:54.106Z,23.68
2023-04-01T06:12:54.147Z,23.68
2023-04-01T06:13:54.193Z,23.67
2023-04-01T06:14:54.216Z,23.68
2023-04-01T06:15:54.276Z,23.68
2023-04-01T06:16:54.298Z,23.69
2023-04-01T06:17:54.413Z,23.70
2023-04-01T06:18:54.371Z,23.70
2023-04-01T06:19:54.419Z,23.70
2023-04-01T06:20:54.426Z,23.71
2023-04-01T06:21:54.467Z,23.72
2023-04-01T06:22:54.552Z,23.72
2023-04-01T06:23:54.593Z,23.72
2023-04-01T06:24:54.630Z,23.71
2023-04-01T06:25:54.690Z,23.73
2023-04-01T06:26:54.696Z,23.72
2023-04-01T06:27:54.725Z,23.73
2023-04-01T06:28:54.801Z,23.73
2023-04-01T06:29:54.828Z,23.73
2023-04-01T06:30:54.844Z,23.74
2023-04-01T06:31:54.918Z,23.74
2023-04-01T06:32:55.008Z,23.75
2023-04-01T06:33:54.964Z,23.75
2023-04-01T06:34:55.020Z,23.74
2023-04-01T06:35:55.136Z,23.75
2023-04-01T06:36:55.082Z,23.74
2023-04-01T06:37:55.137Z,23.75
2023-04-01T06:38:55.141Z,23.74
2023-04-01T06:39:55.216Z,23.75
2023-04-01T06:40:55.224Z,23.75
2023-04-01T06:41:55.253Z,23.74
2023-04-01T06:42:55.309Z,23.75
2023-04-01T06:43:55.317Z,23.75
2023-04-01T06:44:55.351Z,23.75
2023-04-01T06:45:55.423Z,23.75
2023-04-01T06:46:55.392Z,23.76
2023-04-01T06:47:55.547Z,23.76
2023-04-01T06:48:55.477Z,23.76
2023-04-01T06:49:55.515Z,23.77
2023-04-01T06:50:55.552Z,23.77
2023-04-01T06:51:55.578Z,23.78
2023-04-01T06:52:55.588Z,23.78
2023-04-01T06:53:55.661Z,23.78
2023-04-01T06:54:55.714Z,23.79
2023-04-01T06:55:55.691Z,23.80
2023-04-01T06:56:55.779Z,23.81
2023-04-01T06:57:55.758Z,23.83
2023-04-01T06:58:55.801Z,23.84
2023-04-01T06:59:55.801Z,23.84
2023-04-01T07:00:55.895Z,23.85
2023-04-01T07:01:55.874Z,23.86
2023-04-01T07:02:55.960Z,23.87
2023-04-01T07:03:55.919Z,23.87
2023-04-01T07:04:55.940Z,23.89
2023-04-01T07:05:55.968Z,23.90
2023-04-01T07:06:55.947Z,23.91
2023-04-01T07:07:55.970Z,23.91
2023-04-01T07:08:55.988Z,23.90
2023-04-01T07:09:55.999Z,23.91
2023-04-01T07:10:56.050Z,23.92
2023-04-01T07:11:56.024Z,23.92
2023-04-01T07:12:56.053Z,23.93
2023-04-01T07:13:56.066Z,23.93
2023-04-01T07:14:56.119Z,23.94
2023-04-01T07:15:56.718Z,23.94
2023-04-01T07:16:56.131Z,23.95
2023-04-01T07:17:56.206Z,23.96
2023-04-01T07:18:56.137Z,23.96
2023-04-01T07:19:56.187Z,23.97
2023-04-01T07:20:56.180Z,23.97
2023-04-01T07:21:56.228Z,23.97
2023-04-01T07:22:56.243Z,23.98
2023-04-01T07:23:56.295Z,23.98
2023-04-01T07:24:56.272Z,23.98
2023-04-01T07:25:56.282Z,24.00
2023-04-01T07:26:56.356Z,24.01
2023-04-01T07:27:56.321Z,24.03
2023-04-01T07:28:56.353Z,24.03
2023-04-01T07:29:56.334Z,24.05
2023-04-01T07:30:56.382Z,24.05
2023-04-01T07:31:56.347Z,24.05
2023-04-01T07:32:56.382Z,24.06
2023-04-01T07:33:56.341Z,24.05
2023-04-01T07:34:56.364Z,24.06
2023-04-01T07:35:56.403Z,24.06
2023-04-01T07:36:56.421Z,24.07
2023-04-01T07:37:56.430Z,24.07
2023-04-01T07:38:56.479Z,24.08
2023-04-01T07:39:56.465Z,24.09
2023-04-01T07:40:56.455Z,24.09
2023-04-01T07:41:56.458Z,24.09
2023-04-01T07:42:56.475Z,24.10
2023-04-01T07:43:56.457Z,24.10
2023-04-01T07:44:56.468Z,24.09
2023-04-01T07:45:56.513Z,24.10
2023-04-01T07:46:56.536Z,24.09
2023-04-01T07:47:56.537Z,24.09
2023-04-01T07:48:56.533Z,24.10
2023-04-01T07:49:56.516Z,24.10
2023-04-01T07:50:56.522Z,24.08
2023-04-01T07:51:56.566Z,24.10
2023-04-01T07:52:56.528Z,24.10
2023-04-01T07:53:56.531Z,24.10
2023-04-01T07:54:56.543Z,24.09
2023-04-01T07:55:56.569Z,24.10
2023-04-01T07:56:56.565Z,24.09
2023-04-01T07:57:56.575Z,24.09
2023-04-01T07:58:56.588Z,24.09
2023-04-01T07:59:56.565Z,24.10
2023-04-01T08:00:56.601Z,24.10
2023-04-01T08:01:56.595Z,24.11
2023-04-01T08:02:56.641Z,24.12
2023-04-01T08:03:56.746Z,24.12
2023-04-01T08:04:56.669Z,24.12
2023-04-01T08:05:56.616Z,24.12
2023-04-01T08:06:56.593Z,24.13
2023-04-01T08:07:56.597Z,24.14
2023-04-01T08:08:56.607Z,24.15
2023-04-01T08:09:56.619Z,24.15
2023-04-01T08:10:56.627Z,24.15
2023-04-01T08:11:56.630Z,24.17
2023-04-01T08:12:56.622Z,24.17
2023-04-01T08:13:56.648Z,24.18
2023-04-01T08:14:56.659Z,24.18
2023-04-01T08:15:56.660Z,24.21
2023-04-01T08:16:56.645Z,24.23
2023-04-01T08:17:56.662Z,24.25
2023-04-01T08:18:56.644Z,24.27
2023-04-01T08:19:56.629Z,24.29
2023-04-01T08:20:56.612Z,24.32
2023-04-01T08:21:56.638Z,24.34
2023-04-01T08:22:56.595Z,24.36
2023-04-01T08:23:56.613Z,24.37
2023-04-01T08:24:56.620Z,24.39
2023-04-01T08:25:56.619Z,24.42
2023-04-01T08:26:56.653Z,24.43
2023-04-01T08:27:56.656Z,24.45
2023-04-01T08:28:56.706Z,24.47
2023-04-01T08:29:56.736Z,24.48
2023-04-01T08:30:56.752Z,24.50
2023-04-01T08:31:56.900Z,24.51
2023-04-01T08:32:56.986Z,24.53
2023-04-01T08:33:56.971Z,24.54
2023-04-01T08:34:56.999Z,24.55
2023-04-01T08:35:57.086Z,24.57
2023-04-01T08:36:57.141Z,24.59
2023-04-01T08:37:57.186Z,24.59
2023-04-01T08:38:57.250Z,24.61
2023-04-01T08:39:57.318Z,24.61
2023-04-01T08:40:57.381Z,24.62
2023-04-01T08:41:57.427Z,24.64
2023-04-01T08:42:57.495Z,24.63
2023-04-01T08:43:57.547Z,24.64
2023-04-01T08:44:57.589Z,24.65
2023-04-01T08:45:57.730Z,24.66
2023-04-01T08:46:57.732Z,24.66
2023-04-01T08:47:57.887Z,24.67
2023-04-01T08:48:57.855Z,24.68
2023-04-01T08:49:57.915Z,24.70
2023-04-01T08:50:57.983Z,24.70
2023-04-01T08:51:58.049Z,24.71
2023-04-01T08:52:58.100Z,24.72
2023-04-01T08:53:58.169Z,24.72
2023-04-01T08:54:58.216Z,24.73
2023-04-01T08:55:58.285Z,24.73
2023-04-01T08:56:58.387Z,24.73
2023-04-01T08:57:58.376Z,24.75
2023-04-01T08:58:58.472Z,24.76
2023-04-01T08:59:58.538Z,24.76
2023-04-01T09:00:58.581Z,24.76
2023-04-01T09:01:58.666Z,24.76
2023-04-01T09:02:58.781Z,24.77
2023-04-01T09:03:58.809Z,24.78
2023-04-01T09:04:58.765Z,24.79
2023-04-01T09:05:58.841Z,24.80
2023-04-01T09:06:58.885Z,24.80
2023-04-01T09:07:58.942Z,24.82
2023-04-01T09:08:59.002Z,24.83
2023-04-01T09:09:59.064Z,24.83
2023-04-01T09:10:59.082Z,24.83
2023-04-01T09:11:59.178Z,24.84
2023-04-01T09:12:59.170Z,24.84
2023-04-01T09:13:59.219Z,24.83
2023-04-01T09:14:59.267Z,24.84
2023-04-01T09:15:59.419Z,24.83
2023-04-01T09:16:59.367Z,24.83
2023-04-01T09:17:59.442Z,24.83
2023-04-01T09:18:59.502Z,24.82
2023-04-01T09:19:59.554Z,24.82
2023-04-01T09:20:59.592Z,24.82
2023-04-01T09:21:59.614Z,24.81
2023-04-01T09:22:59.670Z,24.82
2023-04-01T09:23:59.729Z,24.82
2023-04-01T09:24:59.769Z,24.83
2023-04-01T09:25:59.870Z,24.82
2023-04-01T09:26:59.970Z,24.83
2023-04-01T09:27:59.925Z,24.83
2023-04-01T09:28:59.971Z,24.83
2023-04-01T09:30:00.030Z,24.84
2023-04-01T09:31:00.129Z,24.85
2023-04-01T09:32:00.130Z,24.86
2023-04-01T09:33:00.219Z,24.87
2023-04-01T09:34:00.224Z,24.86
2023-04-01T09:35:00.274Z,24.87
2023-04-01T09:36:00.341Z,24.87
2023-04-01T09:37:00.361Z,24.87
2023-04-01T09:38:00.376Z,24.88
2023-04-01T09:39:00.446Z,24.88
2023-04-01T09:40:00.503Z,24.88
2023-04-01T09:41:00.548Z,24.89
2023-04-01T09:42:00.581Z,24.89
2023-04-01T09:43:00.615Z,24.89
2023-04-01T09:44:00.683Z,24.89
2023-04-01T09:45:00.704Z,24.87
2023-04-01T09:46:00.776Z,24.89
2023-04-01T09:47:00.811Z,24.90
2023-04-01T09:48:00.892Z,24.91
2023-04-01T09:49:00.851Z,24.92
2023-04-01T09:50:00.941Z,24.92
2023-04-01T09:51:01.058Z,24.92
2023-04-01T09:52:01.030Z,24.91
2023-04-01T09:53:01.042Z,24.91
2023-04-01T09:54:01.094Z,24.91
2023-04-01T09:55:01.153Z,24.92
2023-04-01T09:56:01.178Z,24.92
2023-04-01T09:57:01.275Z,24.91
2023-04-01T09:58:01.270Z,24.91
2023-04-01T09:59:01.296Z,24.91
2023-04-01T10:00:01.391Z,24.92
2023-04-01T10:01:02.241Z,24.91
2023-04-01T10:02:01.421Z,24.91
2023-04-01T10:03:01.521Z,24.90
2023-04-01T10:04:01.474Z,24.90
2023-04-01T10:05:01.536Z,24.89
2023-04-01T10:06:01.602Z,24.89
2023-04-01T10:07:01.629Z,24.88
2023-04-01T10:08:01.656Z,24.87
2023-04-01T10:09:01.687Z,24.88
2023-04-01T10:10:01.788Z,24.88
2023-04-01T10:11:01.765Z,24.88
2023-04-01T10:12:01.819Z,24.87
2023-04-01T10:13:01.886Z,24.87
2023-04-01T10:14:01.899Z,24.86
2023-04-01T10:15:01.972Z,24.85
2023-04-01T10:16:02.040Z,24.85
2023-04-01T10:17:02.074Z,24.85
2023-04-01T10:18:02.154Z,24.84
2023-04-01T10:19:02.124Z,24.83
2023-04-01T10:20:02.154Z,24.83
2023-04-01T10:21:02.217Z,24.81
2023-04-01T10:22:02.279Z,24.81
2023-04-01T10:23:02.320Z,24.80
2023-04-01T10:24:02.364Z,24.78
2023-04-01T10:25:04.277Z,24.78
2023-04-01T10:26:02.428Z,24.79
2023-04-01T10:27:02.408Z,24.78
2023-04-01T10:28:02.403Z,24.78
2023-04-01T10:29:02.388Z,24.79
2023-04-01T10:30:02.424Z,24.78
2023-04-01T10:31:02.362Z,24.77
2023-04-01T10:32:02.433Z,24.76
2023-04-01T10:33:02.375Z,24.75
2023-04-01T10:34:02.329Z,24.75
2023-04-01T10:35:02.336Z,24.75
2023-04-01T10:36:02.376Z,24.76
2023-04-01T10:37:02.345Z,24.77
2023-04-01T10:38:02.310Z,24.77
2023-04-01T10:39:02.314Z,24.77
2023-04-01T10:40:02.299Z,24.78
2023-04-01T10:41:02.301Z,24.78
2023-04-01T10:42:02.309Z,24.78
2023-04-01T10:43:02.303Z,24.77
2023-04-01T10:44:02.268Z,24.78
2023-04-01T10:45:02.312Z,24.76
2023-04-01T10:46:02.268Z,24.76
2023-04-01T10:47:02.237Z,24.77
2023-04-01T10:48:02.338Z,24.77
2023-04-01T10:49:02.273Z,24.78
2023-04-01T10:50:02.214Z,24.78
2023-04-01T10:51:02.242Z,24.78
2023-04-01T10:52:02.241Z,24.76
2023-04-01T10:53:02.217Z,24.76
2023-04-01T10:54:02.214Z,24.77
2023-04-01T10:55:02.215Z,24.79
2023-04-01T10:56:02.206Z,24.78
2023-04-01T10:57:02.285Z,24.78
2023-04-01T10:58:02.193Z,24.79
2023-04-01T10:59:02.199Z,24.79
2023-04-01T11:00:02.256Z,24.81
2023-04-01T11:01:02.307Z,24.81
2023-04-01T11:02:11.373Z,24.82
2023-04-01T11:03:03.448Z,24.84
2023-04-01T11:04:02.305Z,24.85
2023-04-01T11:05:02.352Z,24.86
2023-04-01T11:06:02.322Z,24.86
2023-04-01T11:07:02.316Z,24.88
2023-04-01T11:08:06.633Z,24.89
2023-04-01T11:09:03.291Z,24.90
2023-04-01T11:10:02.304Z,24.90
2023-04-01T11:11:02.295Z,24.91
2023-04-01T11:12:02.273Z,24.91
2023-04-01T11:13:02.260Z,24.92
2023-04-01T11:14:02.259Z,24.94
2023-04-01T11:15:02.286Z,24.96
2023-04-01T11:16:02.282Z,24.97
2023-04-01T11:17:02.256Z,24.98
2023-04-01T11:18:02.268Z,24.99
2023-04-01T11:19:02.249Z,25.01
2023-04-01T11:20:02.251Z,25.02
2023-04-01T11:21:02.219Z,25.03
2023-04-01T11:22:02.189Z,25.04
2023-04-01T11:23:02.236Z,25.06
2023-04-01T11:24:05.609Z,25.07
2023-04-01T11:25:02.259Z,25.08
2023-04-01T11:26:02.258Z,25.09
2023-04-01T11:27:02.304Z,25.10
2023-04-01T11:28:02.238Z,25.10
2023-04-01T11:29:02.241Z,25.11
2023-04-01T11:30:02.209Z,25.11
2023-04-01T11:31:02.207Z,25.11
2023-04-01T11:32:02.203Z,25.12
2023-04-01T11:33:02.245Z,25.11
2023-04-01T11:34:02.184Z,25.12
2023-04-01T11:35:02.225Z,25.12
2023-04-01T11:36:02.179Z,25.11
2023-04-01T11:37:02.196Z,25.12
2023-04-01T11:38:02.200Z,25.14
2023-04-01T11:39:02.154Z,25.13
2023-04-01T11:40:02.152Z,25.13
2023-04-01T11:41:02.128Z,25.12
2023-04-01T11:42:02.143Z,25.13
2023-04-01T11:43:02.130Z,25.13
2023-04-01T11:44:02.103Z,25.14
2023-04-01T11:45:02.101Z,25.14
2023-04-01T11:46:02.177Z,25.14
2023-04-01T11:47:02.116Z,25.15
2023-04-01T11:48:02.160Z,25.15
2023-04-01T11:49:02.108Z,25.17
2023-04-01T11:50:02.070Z,25.17
2023-04-01T11:51:02.079Z,25.16
2023-04-01T11:52:02.068Z,25.16
2023-04-01T11:53:02.054Z,25.15
2023-04-01T11:54:02.060Z,25.16
2023-04-01T11:55:02.072Z,25.17
2023-04-01T11:56:02.058Z,25.17
2023-04-01T11:57:02.053Z,25.17
2023-04-01T11:58:02.074Z,25.17
2023-04-01T11:59:02.058Z,25.17
2023-04-01T12:00:02.029Z,25.17
2023-04-01T12:01:02.021Z,25.17
2023-04-01T12:02:02.039Z,25.18
2023-04-01T12:03:02.109Z,25.18
2023-04-01T12:04:02.255Z,25.18
2023-04-01T12:05:02.111Z,25.17
2023-04-01T12:06:02.004Z,25.17
2023-04-01T12:07:01.976Z,25.15
2023-04-01T12:08:02.003Z,25.14
2023-04-01T12:09:01.971Z,25.14
2023-04-01T12:10:01.981Z,25.14
2023-04-01T12:11:01.951Z,25.14
2023-04-01T12:12:01.954Z,25.12
2023-04-01T12:13:02.271Z,25.11
2023-04-01T12:14:01.943Z,25.10
2023-04-01T12:15:01.925Z,25.11
2023-04-01T12:16:01.963Z,25.12
2023-04-01T12:17:01.924Z,25.12
2023-04-01T12:18:02.015Z,25.12
2023-04-01T12:19:01.907Z,25.12
2023-04-01T12:20:01.904Z,25.11
2023-04-01T12:21:01.907Z,25.11
2023-04-01T12:22:01.866Z,25.11
2023-04-01T12:23:01.883Z,25.11
2023-04-01T12:24:01.867Z,25.10
2023-04-01T12:25:01.868Z,25.10
2023-04-01T12:26:01.869Z,25.09
2023-04-01T12:27:01.855Z,25.09
2023-04-01T12:28:01.859Z,25.09
2023-04-01T12:29:01.868Z,25.10
2023-04-01T12:30:01.867Z,25.09
2023-04-01T12:31:01.843Z,25.09
2023-04-01T12:32:01.933Z,25.09
2023-04-01T12:33:01.913Z,25.09
2023-04-01T12:34:01.920Z,25.09
2023-04-01T12:35:01.956Z,25.09
2023-04-01T12:36:02.118Z,25.10
2023-04-01T12:37:01.953Z,25.08
2023-04-01T12:38:01.996Z,25.07
2023-04-01T12:39:02.010Z,25.07
2023-04-01T12:40:02.117Z,25.06
2023-04-01T12:41:02.068Z,25.06
2023-04-01T12:42:02.092Z,25.06
2023-04-01T12:43:02.103Z,25.06
2023-04-01T12:44:02.115Z,25.05
2023-04-01T12:45:02.168Z,25.04
2023-04-01T12:46:02.269Z,25.04
2023-04-01T12:47:02.195Z,25.04
2023-04-01T12:48:02.243Z,25.02
2023-04-01T12:49:02.223Z,25.02
2023-04-01T12:50:02.264Z,25.02
2023-04-01T12:51:02.303Z,25.01
2023-04-01T12:52:02.357Z,25.01
2023-04-01T12:53:02.354Z,25.01
2023-04-01T12:54:02.401Z,25.00